Daisy — D5AH4 — position and weather

sailwx.info

Track history (hours):
 
Tides and Currents Weather Stations Pressure Air Temp Water Temp Dewpoint Dewpoint Depression Visibility Wind Speed Wind Dir Waves Ship Positions

Daisy

Last reported at 2017-Oct-10 23:16 UTC. Time now 2017-Oct-18 16:40 UTC.
Position N 29°31' W 094°53'.

Length 156 m; draft 6.2 m.

Type: Ship. MMSI: 636018226.

Date/timePositionNaut miles runAvg speedWind from/ knotsBaromVisibWave heightAir tempDewpointWater temp
2017-Oct-10 23:16N 29°31' W 094°53'412.9
2017-Oct-10 23:00N 29°34' W 094°55'612.8
2017-Oct-10 22:30N 29°39' W 094°58'610.5
2017-Oct-10 21:58N 29°44' W 095°02'4 6.6
2017-Oct-10 21:20N 29°44' W 095°07'3 7.5
2017-Oct-10 20:59N 29°45' W 095°10'0 0.6
2017-Oct-10 20:27N 29°45' W 095°10'0 0.0
2017-Oct-10 19:09N 29°45' W 095°10'0 0.0
2017-Oct-10 19:00N 29°45' W 095°10'0 0.0
2017-Oct-10 18:24N 29°45' W 095°10'0 0.0
2017-Oct-10 17:54N 29°45' W 095°10'0 0.0
2017-Oct-10 11:00N 29°45' W 095°10'0 0.0
2017-Oct-10 09:39N 29°45' W 095°10'0 0.0
2017-Oct-10 09:15N 29°45' W 095°10'0 0.0
2017-Oct-10 09:00N 29°45' W 095°10'0 0.0
2017-Oct-10 08:27N 29°45' W 095°10'0 0.0
2017-Oct-10 08:00N 29°45' W 095°10'0 0.0
2017-Oct-10 07:30N 29°45' W 095°10'0 0.0
2017-Oct-10 06:51N 29°45' W 095°10'0 0.0
2017-Oct-10 06:21N 29°45' W 095°10'0 0.0
2017-Oct-10 06:00N 29°45' W 095°10'0 0.0
2017-Oct-10 05:18N 29°45' W 095°10'0 0.0
2017-Oct-10 05:00N 29°45' W 095°10'0 0.0
2017-Oct-10 03:30N 29°45' W 095°10'0 0.0
2017-Oct-10 02:18N 29°45' W 095°10'0 0.0
2017-Oct-10 01:51N 29°45' W 095°10'0 0.0
2017-Oct-10 01:27N 29°45' W 095°10'0 0.0
2017-Oct-10 01:00N 29°45' W 095°10'0 0.0
2017-Oct-10 00:30N 29°45' W 095°10'0 0.0
2017-Oct-09 23:57N 29°45' W 095°10'0 0.0
2017-Oct-09 23:24N 29°45' W 095°10'0 0.0
2017-Oct-09 22:57N 29°45' W 095°10'0 0.0
2017-Oct-09 22:21N 29°45' W 095°10'0 0.0
2017-Oct-09 22:00N 29°45' W 095°10'0 0.0
2017-Oct-09 21:30N 29°45' W 095°10'0 0.0
2017-Oct-09 19:45N 29°45' W 095°10'0 0.0
2017-Oct-09 19:27N 29°45' W 095°10'0 0.0
2017-Oct-09 18:48N 29°45' W 095°10'0 0.0
2017-Oct-09 16:27N 29°45' W 095°10'0 0.0
2017-Oct-09 15:54N 29°45' W 095°10'0 0.0
2017-Oct-09 15:21N 29°45' W 095°10'0 0.0
2017-Oct-09 14:09N 29°45' W 095°10'0 0.0
2017-Oct-09 14:00N 29°45' W 095°10'0 0.0
2017-Oct-09 12:45N 29°45' W 095°10'0 0.0
2017-Oct-09 11:57N 29°45' W 095°10'0 0.0
2017-Oct-09 11:30N 29°45' W 095°10'0 0.0
2017-Oct-09 10:39N 29°45' W 095°10'0 0.0
2017-Oct-09 10:12N 29°45' W 095°10'0 0.0
2017-Oct-09 09:51N 29°45' W 095°10'0 0.0
2017-Oct-09 07:30N 29°45' W 095°10'0 0.0
2017-Oct-09 06:30N 29°45' W 095°10'0 0.0
2017-Oct-09 05:54N 29°45' W 095°10'0 0.0
2017-Oct-09 05:15N 29°45' W 095°10'0 0.0
2017-Oct-09 04:51N 29°45' W 095°10'1 1.6
2017-Oct-09 04:30N 29°45' W 095°10'3 6.2
2017-Oct-09 04:00N 29°45' W 095°06'2 4.9
2017-Oct-09 03:31N 29°44' W 095°03'3 5.9
2017-Oct-09 03:00N 29°42' W 095°01'2 3.8
2017-Oct-09 02:28N 29°41' W 094°59'0 0.0
2017-Oct-09 01:58N 29°41' W 094°59'0 0.0
2017-Oct-09 01:25N 29°41' W 094°59'0 0.0
2017-Oct-09 00:58N 29°41' W 094°59'0 0.0
2017-Oct-09 00:28N 29°41' W 094°59'0 0.0
2017-Oct-08 23:58N 29°41' W 094°59'0 0.0
2017-Oct-08 23:28N 29°41' W 094°59'0 0.0
2017-Oct-08 22:58N 29°41' W 094°59'0 0.0
2017-Oct-08 22:28N 29°41' W 094°59'0 0.0
2017-Oct-08 21:58N 29°41' W 094°59'0 0.0
2017-Oct-08 21:28N 29°41' W 094°59'0 0.0
2017-Oct-08 20:58N 29°41' W 094°59'0 0.0
2017-Oct-08 20:28N 29°41' W 094°59'0 0.0
2017-Oct-08 19:58N 29°41' W 094°59'0 0.0
2017-Oct-08 19:28N 29°41' W 094°59'0 0.0
2017-Oct-08 18:58N 29°41' W 094°59'0 0.0
2017-Oct-08 18:28N 29°41' W 094°59'0 0.0
2017-Oct-08 17:58N 29°41' W 094°59'0 0.0
2017-Oct-08 17:28N 29°41' W 094°59'0 0.0
2017-Oct-08 16:58N 29°41' W 094°59'0 0.0
2017-Oct-08 16:28N 29°41' W 094°59'0 0.0
2017-Oct-08 15:58N 29°41' W 094°59'0 0.0
2017-Oct-08 15:28N 29°41' W 094°59'0 0.0
2017-Oct-08 14:58N 29°41' W 094°59'0 0.0
2017-Oct-08 14:28N 29°41' W 094°59'0 0.0
2017-Oct-08 13:58N 29°41' W 094°59'0 0.0
2017-Oct-08 13:28N 29°41' W 094°59'0 0.0
2017-Oct-08 12:58N 29°41' W 094°59'0 0.0
2017-Oct-08 12:28N 29°41' W 094°59'0 0.0
2017-Oct-08 11:58N 29°41' W 094°59'0 0.0
2017-Oct-08 11:28N 29°41' W 094°59'0 0.0
2017-Oct-08 10:58N 29°41' W 094°59'0 0.0
2017-Oct-08 10:28N 29°41' W 094°59'0 0.0
2017-Oct-08 09:58N 29°41' W 094°59'0 0.0
2017-Oct-08 09:28N 29°41' W 094°59'0 0.0
2017-Oct-08 08:58N 29°41' W 094°59'0 0.0
2017-Oct-08 08:28N 29°41' W 094°59'0 0.0
2017-Oct-08 07:58N 29°41' W 094°59'0 0.0
2017-Oct-08 07:25N 29°41' W 094°59'0 0.0
2017-Oct-08 06:58N 29°41' W 094°59'0 0.0
2017-Oct-08 06:28N 29°41' W 094°59'0 0.0
2017-Oct-08 05:58N 29°41' W 094°59'0 0.0
2017-Oct-08 05:28N 29°41' W 094°59'0 0.0
2017-Oct-08 04:58N 29°41' W 094°59'0 0.0
2017-Oct-08 04:28N 29°41' W 094°59'0 0.0
2017-Oct-08 03:58N 29°41' W 094°59'0 0.0
2017-Oct-08 03:28N 29°41' W 094°59'0 0.0
2017-Oct-08 02:58N 29°41' W 094°59'0 0.0
2017-Oct-08 02:28N 29°41' W 094°59'0 0.0
2017-Oct-08 01:58N 29°41' W 094°59'0 0.0
2017-Oct-08 01:28N 29°41' W 094°59'0 0.0
2017-Oct-08 00:58N 29°41' W 094°59'0 0.0
2017-Oct-08 00:25N 29°41' W 094°59'0 0.0
2017-Oct-07 23:58N 29°41' W 094°59'0 0.0
2017-Oct-07 23:25N 29°41' W 094°59'0 0.0
2017-Oct-07 22:58N 29°41' W 094°59'0 0.0
2017-Oct-07 22:28N 29°41' W 094°59'0 0.0
2017-Oct-07 21:58N 29°41' W 094°59'0 0.0
2017-Oct-07 21:28N 29°41' W 094°59'0 0.0
2017-Oct-07 20:58N 29°41' W 094°59'0 0.0
2017-Oct-07 20:28N 29°41' W 094°59'0 0.0
2017-Oct-07 19:58N 29°41' W 094°59'0 0.0
2017-Oct-07 19:28N 29°41' W 094°59'0 0.0
2017-Oct-07 18:55N 29°41' W 094°59'0 0.0
2017-Oct-07 18:28N 29°41' W 094°59'0 0.0
2017-Oct-07 17:58N 29°41' W 094°59'0 0.0
2017-Oct-07 17:28N 29°41' W 094°59'0 0.0
2017-Oct-07 16:58N 29°41' W 094°59'0 0.0
2017-Oct-07 16:28N 29°41' W 094°59'0 0.0
2017-Oct-07 15:58N 29°41' W 094°59'0 0.0
2017-Oct-07 15:28N 29°41' W 094°59'0 0.0
2017-Oct-07 14:58N 29°41' W 094°59'0 0.0
2017-Oct-07 14:28N 29°41' W 094°59'0 0.0
2017-Oct-07 13:55N 29°41' W 094°59'0 0.0
2017-Oct-07 13:28N 29°41' W 094°59'0 0.0
2017-Oct-07 12:58N 29°41' W 094°59'0 0.0
2017-Oct-07 12:28N 29°41' W 094°59'0 0.0
2017-Oct-07 11:58N 29°41' W 094°59'0 0.0
2017-Oct-07 11:28N 29°41' W 094°59'0 0.0
2017-Oct-07 10:58N 29°41' W 094°59'0 0.0
2017-Oct-07 10:28N 29°41' W 094°59'0 0.0
2017-Oct-07 09:52N 29°41' W 094°59'0 0.0
2017-Oct-07 09:28N 29°41' W 094°59'0 0.0
2017-Oct-07 08:58N 29°41' W 094°59'0 0.0
2017-Oct-07 08:25N 29°41' W 094°59'0 0.0
2017-Oct-07 07:58N 29°41' W 094°59'0 0.0
2017-Oct-07 07:28N 29°41' W 094°59'0 0.0
2017-Oct-07 06:58N 29°41' W 094°59'0 0.0
2017-Oct-07 06:28N 29°41' W 094°59'0 0.0
2017-Oct-07 05:58N 29°41' W 094°59'0 0.0
2017-Oct-07 05:28N 29°41' W 094°59'0 0.0
2017-Oct-07 04:58N 29°41' W 094°59'0 0.0
2017-Oct-07 04:28N 29°41' W 094°59'0 0.0
2017-Oct-07 03:58N 29°41' W 094°59'0 0.0
2017-Oct-07 03:28N 29°41' W 094°59'0 0.0
2017-Oct-07 02:58N 29°41' W 094°59'0 0.0
2017-Oct-07 02:28N 29°41' W 094°59'0 0.0
2017-Oct-07 01:58N 29°41' W 094°59'0 0.0
2017-Oct-07 01:28N 29°41' W 094°59'0 0.0
2017-Oct-07 00:58N 29°41' W 094°59'0 0.0
2017-Oct-07 00:28N 29°41' W 094°59'0 0.0
2017-Oct-06 23:58N 29°41' W 094°59'0 0.0
2017-Oct-06 23:28N 29°41' W 094°59'0 0.0
2017-Oct-06 22:58N 29°41' W 094°59'0 0.0
2017-Oct-06 22:28N 29°41' W 094°59'0 0.0
2017-Oct-06 21:58N 29°41' W 094°59'0 0.0
2017-Oct-06 21:28N 29°41' W 094°59'0 0.0
2017-Oct-06 20:55N 29°41' W 094°59'0 0.0
2017-Oct-06 20:28N 29°41' W 094°59'0 0.0
2017-Oct-06 19:58N 29°41' W 094°59'0 0.0
2017-Oct-06 19:28N 29°41' W 094°59'0 0.0
2017-Oct-06 18:58N 29°41' W 094°59'0 0.0
2017-Oct-06 18:28N 29°41' W 094°59'0 0.0
2017-Oct-06 17:58N 29°41' W 094°59'0 0.0
2017-Oct-06 17:28N 29°41' W 094°59'0 0.0
2017-Oct-06 16:58N 29°41' W 094°59'0 0.0
2017-Oct-06 16:28N 29°41' W 094°59'0 0.0
2017-Oct-06 15:58N 29°41' W 094°59'0 0.0
2017-Oct-06 15:28N 29°41' W 094°59'0 0.0
2017-Oct-06 14:58N 29°41' W 094°59'0 0.0
2017-Oct-06 14:28N 29°41' W 094°59'0 0.0
2017-Oct-06 13:58N 29°41' W 094°59'0 0.0
2017-Oct-06 13:28N 29°41' W 094°59'0 0.0
2017-Oct-06 12:55N 29°41' W 094°59'0 0.0
2017-Oct-06 12:28N 29°41' W 094°59'0 0.0
2017-Oct-06 11:58N 29°41' W 094°59'0 0.0
2017-Oct-06 11:28N 29°41' W 094°59'0 0.0
2017-Oct-06 10:55N 29°41' W 094°59'0 0.0
2017-Oct-06 10:28N 29°41' W 094°59'0 0.0
2017-Oct-06 09:58N 29°41' W 094°59'0 0.0
2017-Oct-06 09:28N 29°41' W 094°59'0 0.0
2017-Oct-06 08:58N 29°41' W 094°59'0 0.0
2017-Oct-06 08:28N 29°41' W 094°59'0 0.0
2017-Oct-06 07:58N 29°41' W 094°59'0 0.0
2017-Oct-06 07:28N 29°41' W 094°59'0 0.0
2017-Oct-06 06:52N 29°41' W 094°59'0 0.0
2017-Oct-06 06:28N 29°41' W 094°59'0 0.0
2017-Oct-06 05:58N 29°41' W 094°59'0 0.0
2017-Oct-06 05:28N 29°41' W 094°59'0 0.0
2017-Oct-06 04:58N 29°41' W 094°59'0 0.0
2017-Oct-06 04:25N 29°41' W 094°59'0 0.0
2017-Oct-06 03:58N 29°41' W 094°59'0 0.0
2017-Oct-06 03:28N 29°41' W 094°59'0 0.0
2017-Oct-06 02:58N 29°41' W 094°59'0 0.0
2017-Oct-06 02:28N 29°41' W 094°59'0 0.0
2017-Oct-06 01:58N 29°41' W 094°59'0 0.0
2017-Oct-06 01:28N 29°41' W 094°59'0 0.0
2017-Oct-06 00:55N 29°41' W 094°59'0 0.0
2017-Oct-06 00:28N 29°41' W 094°59'0 0.0
2017-Oct-05 23:58N 29°41' W 094°59'0 0.0
2017-Oct-05 23:28N 29°41' W 094°59'0 0.0
2017-Oct-05 22:58N 29°41' W 094°59'0 0.0
2017-Oct-05 22:28N 29°41' W 094°59'0 0.0
2017-Oct-05 21:58N 29°41' W 094°59'0 0.0
2017-Oct-05 21:28N 29°41' W 094°59'0 0.0
2017-Oct-05 20:58N 29°41' W 094°59'0 0.0
2017-Oct-05 20:25N 29°41' W 094°59'0 0.0
2017-Oct-05 19:58N 29°41' W 094°59'0 0.0
2017-Oct-05 19:28N 29°41' W 094°59'0 0.0
2017-Oct-05 18:58N 29°41' W 094°59'0 0.0
2017-Oct-05 18:28N 29°41' W 094°59'0 0.0
2017-Oct-05 17:58N 29°41' W 094°59'0 0.0
2017-Oct-05 17:28N 29°41' W 094°59'0 0.0
2017-Oct-05 16:58N 29°41' W 094°59'0 0.0
2017-Oct-05 15:28N 29°41' W 094°59'0 0.0
2017-Oct-05 14:58N 29°41' W 094°59'0 0.0
2017-Oct-05 14:28N 29°41' W 094°59'0 0.0
2017-Oct-05 13:52N 29°41' W 094°59'0 0.0
2017-Oct-05 13:28N 29°41' W 094°59'0 0.0
2017-Oct-05 12:55N 29°41' W 094°59'0 0.0
2017-Oct-05 12:28N 29°41' W 094°59'0 0.0
2017-Oct-05 11:58N 29°41' W 094°59'0 0.0
2017-Oct-05 11:28N 29°41' W 094°59'0 0.0
2017-Oct-05 10:58N 29°41' W 094°59'0 0.0
2017-Oct-05 10:28N 29°41' W 094°59'0 0.0
2017-Oct-05 09:58N 29°41' W 094°59'0 0.0
2017-Oct-05 09:28N 29°41' W 094°59'0 0.0
2017-Oct-05 08:58N 29°41' W 094°59'0 0.0
2017-Oct-05 08:28N 29°41' W 094°59'0 0.0
2017-Oct-05 07:58N 29°41' W 094°59'0 0.0
2017-Oct-05 07:28N 29°41' W 094°59'0 0.0
2017-Oct-05 06:58N 29°41' W 094°59'0 0.0
2017-Oct-05 06:28N 29°41' W 094°59'0 0.0
2017-Oct-05 05:58N 29°41' W 094°59'0 0.0
2017-Oct-05 05:28N 29°41' W 094°59'0 0.0
2017-Oct-05 04:58N 29°41' W 094°59'0 0.0
2017-Oct-05 04:28N 29°41' W 094°59'0 0.0
2017-Oct-05 03:58N 29°41' W 094°59'0 0.0
2017-Oct-05 03:28N 29°41' W 094°59'0 0.0
2017-Oct-05 02:58N 29°41' W 094°59'0 0.0
2017-Oct-05 02:28N 29°41' W 094°59'0 0.0
2017-Oct-05 01:55N 29°41' W 094°59'0 0.0
2017-Oct-05 01:28N 29°41' W 094°59'0 0.0
2017-Oct-05 00:58N 29°41' W 094°59'0 0.0
2017-Oct-05 00:28N 29°41' W 094°59'0 0.0
2017-Oct-04 23:55N 29°41' W 094°59'0 0.0
2017-Oct-04 23:28N 29°41' W 094°59'0 0.0
2017-Oct-04 22:58N 29°41' W 094°59'0 0.0
2017-Oct-04 22:28N 29°41' W 094°59'0 0.0
2017-Oct-04 21:58N 29°41' W 094°59'0 0.0
2017-Oct-04 21:28N 29°41' W 094°59'0 0.0
2017-Oct-04 20:58N 29°41' W 094°59'0 0.0
2017-Oct-04 20:28N 29°41' W 094°59'0 0.0
2017-Oct-04 20:19N 29°41' W 094°59'0 0.0
2017-Oct-04 19:58N 29°41' W 094°59'0 0.0
2017-Oct-04 19:28N 29°41' W 094°59'0 0.0
2017-Oct-04 18:58N 29°41' W 094°59'0 0.0
2017-Oct-04 18:28N 29°41' W 094°59'0 0.0
2017-Oct-04 17:58N 29°41' W 094°59'0 0.0
2017-Oct-04 17:28N 29°41' W 094°59'0 0.0
2017-Oct-04 16:58N 29°41' W 094°59'0 0.0
2017-Oct-04 16:28N 29°41' W 094°59'0 0.0
2017-Oct-04 15:58N 29°41' W 094°59'0 0.0
2017-Oct-04 15:28N 29°41' W 094°59'0 0.0
2017-Oct-04 14:58N 29°41' W 094°59'0 0.0
2017-Oct-04 14:28N 29°41' W 094°59'0 0.0
2017-Oct-04 13:58N 29°41' W 094°59'0 0.0
2017-Oct-04 13:28N 29°41' W 094°59'0 0.0
2017-Oct-04 12:58N 29°41' W 094°59'0 0.0
2017-Oct-04 12:28N 29°41' W 094°59'0 0.0
2017-Oct-04 11:58N 29°41' W 094°59'0 0.0
2017-Oct-04 11:28N 29°41' W 094°59'0 0.0
2017-Oct-04 10:58N 29°41' W 094°59'0 0.0
2017-Oct-04 10:28N 29°41' W 094°59'0 0.0
2017-Oct-04 09:55N 29°41' W 094°59'0 0.0
2017-Oct-04 09:28N 29°41' W 094°59'0 0.0
2017-Oct-04 08:58N 29°41' W 094°59'0 0.0
2017-Oct-04 08:28N 29°41' W 094°59'0 0.0
2017-Oct-04 07:58N 29°41' W 094°59'0 0.0
2017-Oct-04 07:28N 29°41' W 094°59'0 0.0
2017-Oct-04 06:58N 29°41' W 094°59'0 0.0
2017-Oct-04 06:28N 29°41' W 094°59'0 0.0
2017-Oct-04 05:58N 29°41' W 094°59'0 0.0
2017-Oct-04 05:28N 29°41' W 094°59'0 0.0
2017-Oct-04 04:58N 29°41' W 094°59'0 0.0
2017-Oct-04 04:28N 29°41' W 094°59'0 0.0
2017-Oct-04 03:58N 29°41' W 094°59'0 0.0
2017-Oct-04 03:28N 29°41' W 094°59'0 0.0
2017-Oct-04 02:58N 29°41' W 094°59'0 0.0
2017-Oct-04 02:28N 29°41' W 094°59'0 0.0
2017-Oct-04 01:55N 29°41' W 094°59'0 0.0
2017-Oct-04 01:28N 29°41' W 094°59'0 0.0
2017-Oct-04 00:58N 29°41' W 094°59'0 0.0
2017-Oct-04 00:28N 29°41' W 094°59'0 0.0
2017-Oct-03 23:58N 29°41' W 094°59'0 0.0
2017-Oct-03 23:28N 29°41' W 094°59'0 0.0
2017-Oct-03 22:55N 29°41' W 094°59'0 0.0
2017-Oct-03 22:28N 29°41' W 094°59'0 0.0
2017-Oct-03 21:58N 29°41' W 094°59'0 0.0
2017-Oct-03 21:28N 29°41' W 094°59'0 0.0
2017-Oct-03 20:55N 29°41' W 094°59'0 0.0
2017-Oct-03 20:28N 29°41' W 094°59'0 0.0
2017-Oct-03 19:58N 29°41' W 094°59'0 0.0
2017-Oct-03 19:28N 29°41' W 094°59'0 0.0
2017-Oct-03 18:58N 29°41' W 094°59'0 0.0
2017-Oct-03 18:28N 29°41' W 094°59'0 0.0
2017-Oct-03 17:58N 29°41' W 094°59'0 0.0
2017-Oct-03 17:28N 29°41' W 094°59'0 0.0
2017-Oct-03 16:58N 29°41' W 094°59'0 0.0
2017-Oct-03 16:28N 29°41' W 094°59'0 0.0
2017-Oct-03 15:58N 29°41' W 094°59'0 0.0
2017-Oct-03 15:28N 29°41' W 094°59'0 0.0
2017-Oct-03 14:58N 29°41' W 094°59'0 0.0
2017-Oct-03 13:58N 29°41' W 094°59'0 0.0
2017-Oct-03 13:25N 29°41' W 094°59'0 0.0
2017-Oct-03 12:58N 29°41' W 094°59'0 0.0
2017-Oct-03 12:28N 29°41' W 094°59'0 0.0
2017-Oct-03 11:58N 29°41' W 094°59'0 0.0
2017-Oct-03 11:28N 29°41' W 094°59'0 0.0
2017-Oct-03 10:55N 29°41' W 094°59'0 0.0
2017-Oct-03 10:28N 29°41' W 094°59'0 0.0
2017-Oct-03 09:58N 29°41' W 094°59'0 0.0
2017-Oct-03 09:28N 29°41' W 094°59'0 0.0
2017-Oct-03 08:58N 29°41' W 094°59'0 0.0
2017-Oct-03 08:28N 29°41' W 094°59'0 0.0
2017-Oct-03 07:58N 29°41' W 094°59'0 0.0
2017-Oct-03 07:28N 29°41' W 094°59'0 0.0
2017-Oct-03 06:55N 29°41' W 094°59'0 0.0
2017-Oct-03 06:28N 29°41' W 094°59'0 0.0
2017-Oct-03 05:58N 29°41' W 094°59'0 0.0
2017-Oct-03 05:28N 29°41' W 094°59'0 0.0
2017-Oct-03 04:58N 29°41' W 094°59'0 0.0
2017-Oct-03 04:28N 29°41' W 094°59'0 0.0
2017-Oct-03 03:58N 29°41' W 094°59'0 0.0
2017-Oct-03 03:28N 29°41' W 094°59'0 0.0
2017-Oct-03 02:58N 29°41' W 094°59'0 0.0
2017-Oct-03 02:28N 29°41' W 094°59'0 0.0
2017-Oct-03 01:58N 29°41' W 094°59'0 0.0
2017-Oct-03 01:28N 29°41' W 094°59'0 0.0
2017-Oct-03 00:58N 29°41' W 094°59'0 0.0
2017-Oct-03 00:28N 29°41' W 094°59'0 0.0
2017-Oct-02 23:58N 29°41' W 094°59'0 0.0
2017-Oct-02 23:28N 29°41' W 094°59'0 0.0
2017-Oct-02 22:58N 29°41' W 094°59'0 0.0
2017-Oct-02 22:28N 29°41' W 094°59'0 0.0
2017-Oct-02 21:58N 29°41' W 094°59'0 0.0
2017-Oct-02 21:28N 29°41' W 094°59'0 0.0
2017-Oct-02 20:58N 29°41' W 094°59'0 0.0
2017-Oct-02 20:28N 29°41' W 094°59'0 0.0
2017-Oct-02 19:58N 29°41' W 094°59'0 0.0
2017-Oct-02 19:28N 29°41' W 094°59'0 0.0
2017-Oct-02 18:58N 29°41' W 094°59'0 0.0
2017-Oct-02 18:28N 29°41' W 094°59'0 0.0
2017-Oct-02 17:58N 29°41' W 094°59'0 0.0
2017-Oct-02 17:28N 29°41' W 094°59'0 0.0
2017-Oct-02 16:58N 29°41' W 094°59'0 0.0
2017-Oct-02 16:28N 29°41' W 094°59'0 0.0
2017-Oct-02 15:55N 29°41' W 094°59'0 0.0
2017-Oct-02 15:28N 29°41' W 094°59'0 0.0
2017-Oct-02 14:58N 29°41' W 094°59'0 0.0
2017-Oct-02 14:28N 29°41' W 094°59'0 0.0
2017-Oct-02 13:58N 29°41' W 094°59'0 0.0
2017-Oct-02 13:28N 29°41' W 094°59'0 0.0
2017-Oct-02 12:55N 29°41' W 094°59'0 0.0
2017-Oct-02 12:28N 29°41' W 094°59'0 0.0
2017-Oct-02 11:58N 29°41' W 094°59'0 0.0
2017-Oct-02 11:28N 29°41' W 094°59'0 0.0
2017-Oct-02 10:58N 29°41' W 094°59'0 0.0
2017-Oct-02 10:28N 29°41' W 094°59'0 0.0
2017-Oct-02 09:58N 29°41' W 094°59'0 0.0
2017-Oct-02 09:28N 29°41' W 094°59'0 0.0
2017-Oct-02 08:58N 29°41' W 094°59'0 0.0
2017-Oct-02 08:28N 29°41' W 094°59'0 0.0
2017-Oct-02 07:58N 29°41' W 094°59'0 0.0
2017-Oct-02 07:28N 29°41' W 094°59'0 0.0
2017-Oct-02 06:58N 29°41' W 094°59'0 0.0
2017-Oct-02 06:28N 29°41' W 094°59'0 0.0
2017-Oct-02 05:58N 29°41' W 094°59'0 0.0
2017-Oct-02 05:28N 29°41' W 094°59'0 0.0
2017-Oct-02 04:58N 29°41' W 094°59'0 0.0
2017-Oct-02 04:28N 29°41' W 094°59'0 0.0
2017-Oct-02 03:58N 29°41' W 094°59'0 0.0
2017-Oct-02 03:28N 29°41' W 094°59'0 0.0
2017-Oct-02 02:52N 29°41' W 094°59'0 0.0
2017-Oct-02 02:28N 29°41' W 094°59'0 0.0
2017-Oct-02 01:58N 29°41' W 094°59'0 0.0
2017-Oct-02 01:28N 29°41' W 094°59'0 0.0
2017-Oct-02 00:58N 29°41' W 094°59'0 0.0
2017-Oct-02 00:28N 29°41' W 094°59'0 0.0
2017-Oct-01 23:58N 29°41' W 094°59'0 0.0
2017-Oct-01 23:28N 29°41' W 094°59'0 0.0
2017-Oct-01 22:58N 29°41' W 094°59'0 0.0
2017-Oct-01 22:28N 29°41' W 094°59'0 0.0
2017-Oct-01 21:58N 29°41' W 094°59'0 0.0
2017-Oct-01 21:28N 29°41' W 094°59'0 0.0
2017-Oct-01 20:55N 29°41' W 094°59'0 0.0
2017-Oct-01 20:28N 29°41' W 094°59'0 0.0
2017-Oct-01 19:58N 29°41' W 094°59'0 0.0
2017-Oct-01 19:28N 29°41' W 094°59'0 0.0
2017-Oct-01 18:58N 29°41' W 094°59'0 0.0
2017-Oct-01 18:28N 29°41' W 094°59'0 0.0
2017-Oct-01 17:58N 29°41' W 094°59'0 0.0
2017-Oct-01 17:28N 29°41' W 094°59'0 0.0
2017-Oct-01 16:58N 29°41' W 094°59'0 0.0
2017-Oct-01 16:28N 29°41' W 094°59'0 0.0
2017-Oct-01 15:58N 29°41' W 094°59'0 0.0
2017-Oct-01 15:28N 29°41' W 094°59'0 0.0
2017-Oct-01 14:58N 29°41' W 094°59'0 0.0
2017-Oct-01 14:28N 29°41' W 094°59'0 0.0
2017-Oct-01 13:58N 29°41' W 094°59'0 0.0
2017-Oct-01 13:28N 29°41' W 094°59'0 0.0
2017-Oct-01 12:58N 29°41' W 094°59'0 0.0
2017-Oct-01 12:28N 29°41' W 094°59'0 0.0
2017-Oct-01 11:58N 29°41' W 094°59'0 0.0
2017-Oct-01 11:25N 29°41' W 094°59'0 0.0
2017-Oct-01 10:58N 29°41' W 094°59'0 0.0
2017-Oct-01 10:28N 29°41' W 094°59'0 0.0
2017-Oct-01 09:58N 29°41' W 094°59'0 0.0
2017-Oct-01 09:28N 29°41' W 094°59'0 0.0
2017-Oct-01 08:58N 29°41' W 094°59'0 0.0
2017-Oct-01 08:28N 29°41' W 094°59'0 0.0
2017-Oct-01 07:58N 29°41' W 094°59'0 0.0
2017-Oct-01 07:28N 29°41' W 094°59'0 0.0
2017-Oct-01 06:58N 29°41' W 094°59'0 0.0
2017-Oct-01 06:25N 29°41' W 094°59'0 0.0
2017-Oct-01 05:55N 29°41' W 094°59'0 0.0
2017-Oct-01 05:28N 29°41' W 094°59'0 0.0
2017-Oct-01 04:58N 29°41' W 094°59'0 0.0
2017-Oct-01 04:25N 29°41' W 094°59'0 0.0
2017-Oct-01 03:58N 29°41' W 094°59'0 0.0
2017-Oct-01 03:28N 29°41' W 094°59'0 0.0
2017-Oct-01 02:58N 29°41' W 094°59'  
Track history (hours):
 
Tides and Currents Weather Stations Pressure Air Temp Water Temp Dewpoint Dewpoint Depression Visibility Wind Speed Wind Dir Waves Ship Positions

Daisy

Last reported at 2017-Oct-10 23:16 UTC. Time now 2017-Oct-18 16:40 UTC.
Position N 29°31' W 094°53'.

Length 156 m; draft 6.2 m.

Type: Ship. MMSI: 636018226.

Date/timePositionNaut miles runAvg speedWind from/ knotsBaromVisibWave heightAir tempDewpointWater temp
2017-Oct-10 23:16N 29°31' W 094°53'412.9
2017-Oct-10 23:00N 29°34' W 094°55'612.8
2017-Oct-10 22:30N 29°39' W 094°58'610.5
2017-Oct-10 21:58N 29°44' W 095°02'4 6.6
2017-Oct-10 21:20N 29°44' W 095°07'3 7.5
2017-Oct-10 20:59N 29°45' W 095°10'0 0.6
2017-Oct-10 20:27N 29°45' W 095°10'0 0.0
2017-Oct-10 19:09N 29°45' W 095°10'0 0.0
2017-Oct-10 19:00N 29°45' W 095°10'0 0.0
2017-Oct-10 18:24N 29°45' W 095°10'0 0.0
2017-Oct-10 17:54N 29°45' W 095°10'0 0.0
2017-Oct-10 11:00N 29°45' W 095°10'0 0.0
2017-Oct-10 09:39N 29°45' W 095°10'0 0.0
2017-Oct-10 09:15N 29°45' W 095°10'0 0.0
2017-Oct-10 09:00N 29°45' W 095°10'0 0.0
2017-Oct-10 08:27N 29°45' W 095°10'0 0.0
2017-Oct-10 08:00N 29°45' W 095°10'0 0.0
2017-Oct-10 07:30N 29°45' W 095°10'0 0.0
2017-Oct-10 06:51N 29°45' W 095°10'0 0.0
2017-Oct-10 06:21N 29°45' W 095°10'0 0.0
2017-Oct-10 06:00N 29°45' W 095°10'0 0.0
2017-Oct-10 05:18N 29°45' W 095°10'0 0.0
2017-Oct-10 05:00N 29°45' W 095°10'0 0.0
2017-Oct-10 03:30N 29°45' W 095°10'0 0.0
2017-Oct-10 02:18N 29°45' W 095°10'0 0.0
2017-Oct-10 01:51N 29°45' W 095°10'0 0.0
2017-Oct-10 01:27N 29°45' W 095°10'0 0.0
2017-Oct-10 01:00N 29°45' W 095°10'0 0.0
2017-Oct-10 00:30N 29°45' W 095°10'0 0.0
2017-Oct-09 23:57N 29°45' W 095°10'0 0.0
2017-Oct-09 23:24N 29°45' W 095°10'0 0.0
2017-Oct-09 22:57N 29°45' W 095°10'0 0.0
2017-Oct-09 22:21N 29°45' W 095°10'0 0.0
2017-Oct-09 22:00N 29°45' W 095°10'0 0.0
2017-Oct-09 21:30N 29°45' W 095°10'0 0.0
2017-Oct-09 19:45N 29°45' W 095°10'0 0.0
2017-Oct-09 19:27N 29°45' W 095°10'0 0.0
2017-Oct-09 18:48N 29°45' W 095°10'0 0.0
2017-Oct-09 16:27N 29°45' W 095°10'0 0.0
2017-Oct-09 15:54N 29°45' W 095°10'0 0.0
2017-Oct-09 15:21N 29°45' W 095°10'0 0.0
2017-Oct-09 14:09N 29°45' W 095°10'0 0.0
2017-Oct-09 14:00N 29°45' W 095°10'0 0.0
2017-Oct-09 12:45N 29°45' W 095°10'0 0.0
2017-Oct-09 11:57N 29°45' W 095°10'0 0.0
2017-Oct-09 11:30N 29°45' W 095°10'0 0.0
2017-Oct-09 10:39N 29°45' W 095°10'0 0.0
2017-Oct-09 10:12N 29°45' W 095°10'0 0.0
2017-Oct-09 09:51N 29°45' W 095°10'0 0.0
2017-Oct-09 07:30N 29°45' W 095°10'0 0.0
2017-Oct-09 06:30N 29°45' W 095°10'0 0.0
2017-Oct-09 05:54N 29°45' W 095°10'0 0.0
2017-Oct-09 05:15N 29°45' W 095°10'0 0.0
2017-Oct-09 04:51N 29°45' W 095°10'1 1.6
2017-Oct-09 04:30N 29°45' W 095°10'3 6.2
2017-Oct-09 04:00N 29°45' W 095°06'2 4.9
2017-Oct-09 03:31N 29°44' W 095°03'3 5.9
2017-Oct-09 03:00N 29°42' W 095°01'2 3.8
2017-Oct-09 02:28N 29°41' W 094°59'0 0.0
2017-Oct-09 01:58N 29°41' W 094°59'0 0.0
2017-Oct-09 01:25N 29°41' W 094°59'0 0.0
2017-Oct-09 00:58N 29°41' W 094°59'0 0.0
2017-Oct-09 00:28N 29°41' W 094°59'0 0.0
2017-Oct-08 23:58N 29°41' W 094°59'0 0.0
2017-Oct-08 23:28N 29°41' W 094°59'0 0.0
2017-Oct-08 22:58N 29°41' W 094°59'0 0.0
2017-Oct-08 22:28N 29°41' W 094°59'0 0.0
2017-Oct-08 21:58N 29°41' W 094°59'0 0.0
2017-Oct-08 21:28N 29°41' W 094°59'0 0.0
2017-Oct-08 20:58N 29°41' W 094°59'0 0.0
2017-Oct-08 20:28N 29°41' W 094°59'0 0.0
2017-Oct-08 19:58N 29°41' W 094°59'0 0.0
2017-Oct-08 19:28N 29°41' W 094°59'0 0.0
2017-Oct-08 18:58N 29°41' W 094°59'0 0.0
2017-Oct-08 18:28N 29°41' W 094°59'0 0.0
2017-Oct-08 17:58N 29°41' W 094°59'0 0.0
2017-Oct-08 17:28N 29°41' W 094°59'0 0.0
2017-Oct-08 16:58N 29°41' W 094°59'0 0.0
2017-Oct-08 16:28N 29°41' W 094°59'0 0.0
2017-Oct-08 15:58N 29°41' W 094°59'0 0.0
2017-Oct-08 15:28N 29°41' W 094°59'0 0.0
2017-Oct-08 14:58N 29°41' W 094°59'0 0.0
2017-Oct-08 14:28N 29°41' W 094°59'0 0.0
2017-Oct-08 13:58N 29°41' W 094°59'0 0.0
2017-Oct-08 13:28N 29°41' W 094°59'0 0.0
2017-Oct-08 12:58N 29°41' W 094°59'0 0.0
2017-Oct-08 12:28N 29°41' W 094°59'0 0.0
2017-Oct-08 11:58N 29°41' W 094°59'0 0.0
2017-Oct-08 11:28N 29°41' W 094°59'0 0.0
2017-Oct-08 10:58N 29°41' W 094°59'0 0.0
2017-Oct-08 10:28N 29°41' W 094°59'0 0.0
2017-Oct-08 09:58N 29°41' W 094°59'0 0.0
2017-Oct-08 09:28N 29°41' W 094°59'0 0.0
2017-Oct-08 08:58N 29°41' W 094°59'0 0.0
2017-Oct-08 08:28N 29°41' W 094°59'0 0.0
2017-Oct-08 07:58N 29°41' W 094°59'0 0.0
2017-Oct-08 07:25N 29°41' W 094°59'0 0.0
2017-Oct-08 06:58N 29°41' W 094°59'0 0.0
2017-Oct-08 06:28N 29°41' W 094°59'0 0.0
2017-Oct-08 05:58N 29°41' W 094°59'0 0.0
2017-Oct-08 05:28N 29°41' W 094°59'0 0.0
2017-Oct-08 04:58N 29°41' W 094°59'0 0.0
2017-Oct-08 04:28N 29°41' W 094°59'0 0.0
2017-Oct-08 03:58N 29°41' W 094°59'0 0.0
2017-Oct-08 03:28N 29°41' W 094°59'0 0.0
2017-Oct-08 02:58N 29°41' W 094°59'0 0.0
2017-Oct-08 02:28N 29°41' W 094°59'0 0.0
2017-Oct-08 01:58N 29°41' W 094°59'0 0.0
2017-Oct-08 01:28N 29°41' W 094°59'0 0.0
2017-Oct-08 00:58N 29°41' W 094°59'0 0.0
2017-Oct-08 00:25N 29°41' W 094°59'0 0.0
2017-Oct-07 23:58N 29°41' W 094°59'0 0.0
2017-Oct-07 23:25N 29°41' W 094°59'0 0.0
2017-Oct-07 22:58N 29°41' W 094°59'0 0.0
2017-Oct-07 22:28N 29°41' W 094°59'0 0.0
2017-Oct-07 21:58N 29°41' W 094°59'0 0.0
2017-Oct-07 21:28N 29°41' W 094°59'0 0.0
2017-Oct-07 20:58N 29°41' W 094°59'0 0.0
2017-Oct-07 20:28N 29°41' W 094°59'0 0.0
2017-Oct-07 19:58N 29°41' W 094°59'0 0.0
2017-Oct-07 19:28N 29°41' W 094°59'0 0.0
2017-Oct-07 18:55N 29°41' W 094°59'0 0.0
2017-Oct-07 18:28N 29°41' W 094°59'0 0.0
2017-Oct-07 17:58N 29°41' W 094°59'0 0.0
2017-Oct-07 17:28N 29°41' W 094°59'0 0.0
2017-Oct-07 16:58N 29°41' W 094°59'0 0.0
2017-Oct-07 16:28N 29°41' W 094°59'0 0.0
2017-Oct-07 15:58N 29°41' W 094°59'0 0.0
2017-Oct-07 15:28N 29°41' W 094°59'0 0.0
2017-Oct-07 14:58N 29°41' W 094°59'0 0.0
2017-Oct-07 14:28N 29°41' W 094°59'0 0.0
2017-Oct-07 13:55N 29°41' W 094°59'0 0.0
2017-Oct-07 13:28N 29°41' W 094°59'0 0.0
2017-Oct-07 12:58N 29°41' W 094°59'0 0.0
2017-Oct-07 12:28N 29°41' W 094°59'0 0.0
2017-Oct-07 11:58N 29°41' W 094°59'0 0.0
2017-Oct-07 11:28N 29°41' W 094°59'0 0.0
2017-Oct-07 10:58N 29°41' W 094°59'0 0.0
2017-Oct-07 10:28N 29°41' W 094°59'0 0.0
2017-Oct-07 09:52N 29°41' W 094°59'0 0.0
2017-Oct-07 09:28N 29°41' W 094°59'0 0.0
2017-Oct-07 08:58N 29°41' W 094°59'0 0.0
2017-Oct-07 08:25N 29°41' W 094°59'0 0.0
2017-Oct-07 07:58N 29°41' W 094°59'0 0.0
2017-Oct-07 07:28N 29°41' W 094°59'0 0.0
2017-Oct-07 06:58N 29°41' W 094°59'0 0.0
2017-Oct-07 06:28N 29°41' W 094°59'0 0.0
2017-Oct-07 05:58N 29°41' W 094°59'0 0.0
2017-Oct-07 05:28N 29°41' W 094°59'0 0.0
2017-Oct-07 04:58N 29°41' W 094°59'0 0.0
2017-Oct-07 04:28N 29°41' W 094°59'0 0.0
2017-Oct-07 03:58N 29°41' W 094°59'0 0.0
2017-Oct-07 03:28N 29°41' W 094°59'0 0.0
2017-Oct-07 02:58N 29°41' W 094°59'0 0.0
2017-Oct-07 02:28N 29°41' W 094°59'0 0.0
2017-Oct-07 01:58N 29°41' W 094°59'0 0.0
2017-Oct-07 01:28N 29°41' W 094°59'0 0.0
2017-Oct-07 00:58N 29°41' W 094°59'0 0.0
2017-Oct-07 00:28N 29°41' W 094°59'0 0.0
2017-Oct-06 23:58N 29°41' W 094°59'0 0.0
2017-Oct-06 23:28N 29°41' W 094°59'0 0.0
2017-Oct-06 22:58N 29°41' W 094°59'0 0.0
2017-Oct-06 22:28N 29°41' W 094°59'0 0.0
2017-Oct-06 21:58N 29°41' W 094°59'0 0.0
2017-Oct-06 21:28N 29°41' W 094°59'0 0.0
2017-Oct-06 20:55N 29°41' W 094°59'0 0.0
2017-Oct-06 20:28N 29°41' W 094°59'0 0.0
2017-Oct-06 19:58N 29°41' W 094°59'0 0.0
2017-Oct-06 19:28N 29°41' W 094°59'0 0.0
2017-Oct-06 18:58N 29°41' W 094°59'0 0.0
2017-Oct-06 18:28N 29°41' W 094°59'0 0.0
2017-Oct-06 17:58N 29°41' W 094°59'0 0.0
2017-Oct-06 17:28N 29°41' W 094°59'0 0.0
2017-Oct-06 16:58N 29°41' W 094°59'0 0.0
2017-Oct-06 16:28N 29°41' W 094°59'0 0.0
2017-Oct-06 15:58N 29°41' W 094°59'0 0.0
2017-Oct-06 15:28N 29°41' W 094°59'0 0.0
2017-Oct-06 14:58N 29°41' W 094°59'0 0.0
2017-Oct-06 14:28N 29°41' W 094°59'0 0.0
2017-Oct-06 13:58N 29°41' W 094°59'0 0.0
2017-Oct-06 13:28N 29°41' W 094°59'0 0.0
2017-Oct-06 12:55N 29°41' W 094°59'0 0.0
2017-Oct-06 12:28N 29°41' W 094°59'0 0.0
2017-Oct-06 11:58N 29°41' W 094°59'0 0.0
2017-Oct-06 11:28N 29°41' W 094°59'0 0.0
2017-Oct-06 10:55N 29°41' W 094°59'0 0.0
2017-Oct-06 10:28N 29°41' W 094°59'0 0.0
2017-Oct-06 09:58N 29°41' W 094°59'0 0.0
2017-Oct-06 09:28N 29°41' W 094°59'0 0.0
2017-Oct-06 08:58N 29°41' W 094°59'0 0.0
2017-Oct-06 08:28N 29°41' W 094°59'0 0.0
2017-Oct-06 07:58N 29°41' W 094°59'0 0.0
2017-Oct-06 07:28N 29°41' W 094°59'0 0.0
2017-Oct-06 06:52N 29°41' W 094°59'0 0.0
2017-Oct-06 06:28N 29°41' W 094°59'0 0.0
2017-Oct-06 05:58N 29°41' W 094°59'0 0.0
2017-Oct-06 05:28N 29°41' W 094°59'0 0.0
2017-Oct-06 04:58N 29°41' W 094°59'0 0.0
2017-Oct-06 04:25N 29°41' W 094°59'0 0.0
2017-Oct-06 03:58N 29°41' W 094°59'0 0.0
2017-Oct-06 03:28N 29°41' W 094°59'0 0.0
2017-Oct-06 02:58N 29°41' W 094°59'0 0.0
2017-Oct-06 02:28N 29°41' W 094°59'0 0.0
2017-Oct-06 01:58N 29°41' W 094°59'0 0.0
2017-Oct-06 01:28N 29°41' W 094°59'0 0.0
2017-Oct-06 00:55N 29°41' W 094°59'0 0.0
2017-Oct-06 00:28N 29°41' W 094°59'0 0.0
2017-Oct-05 23:58N 29°41' W 094°59'0 0.0
2017-Oct-05 23:28N 29°41' W 094°59'0 0.0
2017-Oct-05 22:58N 29°41' W 094°59'0 0.0
2017-Oct-05 22:28N 29°41' W 094°59'0 0.0
2017-Oct-05 21:58N 29°41' W 094°59'0 0.0
2017-Oct-05 21:28N 29°41' W 094°59'0 0.0
2017-Oct-05 20:58N 29°41' W 094°59'0 0.0
2017-Oct-05 20:25N 29°41' W 094°59'0 0.0
2017-Oct-05 19:58N 29°41' W 094°59'0 0.0
2017-Oct-05 19:28N 29°41' W 094°59'0 0.0
2017-Oct-05 18:58N 29°41' W 094°59'0 0.0
2017-Oct-05 18:28N 29°41' W 094°59'0 0.0
2017-Oct-05 17:58N 29°41' W 094°59'0 0.0
2017-Oct-05 17:28N 29°41' W 094°59'0 0.0
2017-Oct-05 16:58N 29°41' W 094°59'0 0.0
2017-Oct-05 15:28N 29°41' W 094°59'0 0.0
2017-Oct-05 14:58N 29°41' W 094°59'0 0.0
2017-Oct-05 14:28N 29°41' W 094°59'0 0.0
2017-Oct-05 13:52N 29°41' W 094°59'0 0.0
2017-Oct-05 13:28N 29°41' W 094°59'0 0.0
2017-Oct-05 12:55N 29°41' W 094°59'0 0.0
2017-Oct-05 12:28N 29°41' W 094°59'0 0.0
2017-Oct-05 11:58N 29°41' W 094°59'0 0.0
2017-Oct-05 11:28N 29°41' W 094°59'0 0.0
2017-Oct-05 10:58N 29°41' W 094°59'0 0.0
2017-Oct-05 10:28N 29°41' W 094°59'0 0.0
2017-Oct-05 09:58N 29°41' W 094°59'0 0.0
2017-Oct-05 09:28N 29°41' W 094°59'0 0.0
2017-Oct-05 08:58N 29°41' W 094°59'0 0.0
2017-Oct-05 08:28N 29°41' W 094°59'0 0.0
2017-Oct-05 07:58N 29°41' W 094°59'0 0.0
2017-Oct-05 07:28N 29°41' W 094°59'0 0.0
2017-Oct-05 06:58N 29°41' W 094°59'0 0.0
2017-Oct-05 06:28N 29°41' W 094°59'0 0.0
2017-Oct-05 05:58N 29°41' W 094°59'0 0.0
2017-Oct-05 05:28N 29°41' W 094°59'0 0.0
2017-Oct-05 04:58N 29°41' W 094°59'0 0.0
2017-Oct-05 04:28N 29°41' W 094°59'0 0.0
2017-Oct-05 03:58N 29°41' W 094°59'0 0.0
2017-Oct-05 03:28N 29°41' W 094°59'0 0.0
2017-Oct-05 02:58N 29°41' W 094°59'0 0.0
2017-Oct-05 02:28N 29°41' W 094°59'0 0.0
2017-Oct-05 01:55N 29°41' W 094°59'0 0.0
2017-Oct-05 01:28N 29°41' W 094°59'0 0.0
2017-Oct-05 00:58N 29°41' W 094°59'0 0.0
2017-Oct-05 00:28N 29°41' W 094°59'0 0.0
2017-Oct-04 23:55N 29°41' W 094°59'0 0.0
2017-Oct-04 23:28N 29°41' W 094°59'0 0.0
2017-Oct-04 22:58N 29°41' W 094°59'0 0.0
2017-Oct-04 22:28N 29°41' W 094°59'0 0.0
2017-Oct-04 21:58N 29°41' W 094°59'0 0.0
2017-Oct-04 21:28N 29°41' W 094°59'0 0.0
2017-Oct-04 20:58N 29°41' W 094°59'0 0.0
2017-Oct-04 20:28N 29°41' W 094°59'0 0.0
2017-Oct-04 20:19N 29°41' W 094°59'0 0.0
2017-Oct-04 19:58N 29°41' W 094°59'0 0.0
2017-Oct-04 19:28N 29°41' W 094°59'0 0.0
2017-Oct-04 18:58N 29°41' W 094°59'0 0.0
2017-Oct-04 18:28N 29°41' W 094°59'0 0.0
2017-Oct-04 17:58N 29°41' W 094°59'0 0.0
2017-Oct-04 17:28N 29°41' W 094°59'0 0.0
2017-Oct-04 16:58N 29°41' W 094°59'0 0.0
2017-Oct-04 16:28N 29°41' W 094°59'0 0.0
2017-Oct-04 15:58N 29°41' W 094°59'0 0.0
2017-Oct-04 15:28N 29°41' W 094°59'0 0.0
2017-Oct-04 14:58N 29°41' W 094°59'0 0.0
2017-Oct-04 14:28N 29°41' W 094°59'0 0.0
2017-Oct-04 13:58N 29°41' W 094°59'0 0.0
2017-Oct-04 13:28N 29°41' W 094°59'0 0.0
2017-Oct-04 12:58N 29°41' W 094°59'0 0.0
2017-Oct-04 12:28N 29°41' W 094°59'0 0.0
2017-Oct-04 11:58N 29°41' W 094°59'0 0.0
2017-Oct-04 11:28N 29°41' W 094°59'0 0.0
2017-Oct-04 10:58N 29°41' W 094°59'0 0.0
2017-Oct-04 10:28N 29°41' W 094°59'0 0.0
2017-Oct-04 09:55N 29°41' W 094°59'0 0.0
2017-Oct-04 09:28N 29°41' W 094°59'0 0.0
2017-Oct-04 08:58N 29°41' W 094°59'0 0.0
2017-Oct-04 08:28N 29°41' W 094°59'0 0.0
2017-Oct-04 07:58N 29°41' W 094°59'0 0.0
2017-Oct-04 07:28N 29°41' W 094°59'0 0.0
2017-Oct-04 06:58N 29°41' W 094°59'0 0.0
2017-Oct-04 06:28N 29°41' W 094°59'0 0.0
2017-Oct-04 05:58N 29°41' W 094°59'0 0.0
2017-Oct-04 05:28N 29°41' W 094°59'0 0.0
2017-Oct-04 04:58N 29°41' W 094°59'0 0.0
2017-Oct-04 04:28N 29°41' W 094°59'0 0.0
2017-Oct-04 03:58N 29°41' W 094°59'0 0.0
2017-Oct-04 03:28N 29°41' W 094°59'0 0.0
2017-Oct-04 02:58N 29°41' W 094°59'0 0.0
2017-Oct-04 02:28N 29°41' W 094°59'0 0.0
2017-Oct-04 01:55N 29°41' W 094°59'0 0.0
2017-Oct-04 01:28N 29°41' W 094°59'0 0.0
2017-Oct-04 00:58N 29°41' W 094°59'0 0.0
2017-Oct-04 00:28N 29°41' W 094°59'0 0.0
2017-Oct-03 23:58N 29°41' W 094°59'0 0.0
2017-Oct-03 23:28N 29°41' W 094°59'0 0.0
2017-Oct-03 22:55N 29°41' W 094°59'0 0.0
2017-Oct-03 22:28N 29°41' W 094°59'0 0.0
2017-Oct-03 21:58N 29°41' W 094°59'0 0.0
2017-Oct-03 21:28N 29°41' W 094°59'0 0.0
2017-Oct-03 20:55N 29°41' W 094°59'0 0.0
2017-Oct-03 20:28N 29°41' W 094°59'0 0.0
2017-Oct-03 19:58N 29°41' W 094°59'0 0.0
2017-Oct-03 19:28N 29°41' W 094°59'0 0.0
2017-Oct-03 18:58N 29°41' W 094°59'0 0.0
2017-Oct-03 18:28N 29°41' W 094°59'0 0.0
2017-Oct-03 17:58N 29°41' W 094°59'0 0.0
2017-Oct-03 17:28N 29°41' W 094°59'0 0.0
2017-Oct-03 16:58N 29°41' W 094°59'0 0.0
2017-Oct-03 16:28N 29°41' W 094°59'0 0.0
2017-Oct-03 15:58N 29°41' W 094°59'0 0.0
2017-Oct-03 15:28N 29°41' W 094°59'0 0.0
2017-Oct-03 14:58N 29°41' W 094°59'0 0.0
2017-Oct-03 13:58N 29°41' W 094°59'0 0.0
2017-Oct-03 13:25N 29°41' W 094°59'0 0.0
2017-Oct-03 12:58N 29°41' W 094°59'0 0.0
2017-Oct-03 12:28N 29°41' W 094°59'0 0.0
2017-Oct-03 11:58N 29°41' W 094°59'0 0.0
2017-Oct-03 11:28N 29°41' W 094°59'0 0.0
2017-Oct-03 10:55N 29°41' W 094°59'0 0.0
2017-Oct-03 10:28N 29°41' W 094°59'0 0.0
2017-Oct-03 09:58N 29°41' W 094°59'0 0.0
2017-Oct-03 09:28N 29°41' W 094°59'0 0.0
2017-Oct-03 08:58N 29°41' W 094°59'0 0.0
2017-Oct-03 08:28N 29°41' W 094°59'0 0.0
2017-Oct-03 07:58N 29°41' W 094°59'0 0.0
2017-Oct-03 07:28N 29°41' W 094°59'0 0.0
2017-Oct-03 06:55N 29°41' W 094°59'0 0.0
2017-Oct-03 06:28N 29°41' W 094°59'0 0.0
2017-Oct-03 05:58N 29°41' W 094°59'0 0.0
2017-Oct-03 05:28N 29°41' W 094°59'0 0.0
2017-Oct-03 04:58N 29°41' W 094°59'0 0.0
2017-Oct-03 04:28N 29°41' W 094°59'0 0.0
2017-Oct-03 03:58N 29°41' W 094°59'0 0.0
2017-Oct-03 03:28N 29°41' W 094°59'0 0.0
2017-Oct-03 02:58N 29°41' W 094°59'0 0.0
2017-Oct-03 02:28N 29°41' W 094°59'0 0.0
2017-Oct-03 01:58N 29°41' W 094°59'0 0.0
2017-Oct-03 01:28N 29°41' W 094°59'0 0.0
2017-Oct-03 00:58N 29°41' W 094°59'0 0.0
2017-Oct-03 00:28N 29°41' W 094°59'0 0.0
2017-Oct-02 23:58N 29°41' W 094°59'0 0.0
2017-Oct-02 23:28N 29°41' W 094°59'0 0.0
2017-Oct-02 22:58N 29°41' W 094°59'0 0.0
2017-Oct-02 22:28N 29°41' W 094°59'0 0.0
2017-Oct-02 21:58N 29°41' W 094°59'0 0.0
2017-Oct-02 21:28N 29°41' W 094°59'0 0.0
2017-Oct-02 20:58N 29°41' W 094°59'0 0.0
2017-Oct-02 20:28N 29°41' W 094°59'0 0.0
2017-Oct-02 19:58N 29°41' W 094°59'0 0.0
2017-Oct-02 19:28N 29°41' W 094°59'0 0.0
2017-Oct-02 18:58N 29°41' W 094°59'0 0.0
2017-Oct-02 18:28N 29°41' W 094°59'0 0.0
2017-Oct-02 17:58N 29°41' W 094°59'0 0.0
2017-Oct-02 17:28N 29°41' W 094°59'0 0.0
2017-Oct-02 16:58N 29°41' W 094°59'0 0.0
2017-Oct-02 16:28N 29°41' W 094°59'0 0.0
2017-Oct-02 15:55N 29°41' W 094°59'0 0.0
2017-Oct-02 15:28N 29°41' W 094°59'0 0.0
2017-Oct-02 14:58N 29°41' W 094°59'0 0.0
2017-Oct-02 14:28N 29°41' W 094°59'0 0.0
2017-Oct-02 13:58N 29°41' W 094°59'0 0.0
2017-Oct-02 13:28N 29°41' W 094°59'0 0.0
2017-Oct-02 12:55N 29°41' W 094°59'0 0.0
2017-Oct-02 12:28N 29°41' W 094°59'0 0.0
2017-Oct-02 11:58N 29°41' W 094°59'0 0.0
2017-Oct-02 11:28N 29°41' W 094°59'0 0.0
2017-Oct-02 10:58N 29°41' W 094°59'0 0.0
2017-Oct-02 10:28N 29°41' W 094°59'0 0.0
2017-Oct-02 09:58N 29°41' W 094°59'0 0.0
2017-Oct-02 09:28N 29°41' W 094°59'0 0.0
2017-Oct-02 08:58N 29°41' W 094°59'0 0.0
2017-Oct-02 08:28N 29°41' W 094°59'0 0.0
2017-Oct-02 07:58N 29°41' W 094°59'0 0.0
2017-Oct-02 07:28N 29°41' W 094°59'0 0.0
2017-Oct-02 06:58N 29°41' W 094°59'0 0.0
2017-Oct-02 06:28N 29°41' W 094°59'0 0.0
2017-Oct-02 05:58N 29°41' W 094°59'0 0.0
2017-Oct-02 05:28N 29°41' W 094°59'0 0.0
2017-Oct-02 04:58N 29°41' W 094°59'0 0.0
2017-Oct-02 04:28N 29°41' W 094°59'0 0.0
2017-Oct-02 03:58N 29°41' W 094°59'0 0.0
2017-Oct-02 03:28N 29°41' W 094°59'0 0.0
2017-Oct-02 02:52N 29°41' W 094°59'0 0.0
2017-Oct-02 02:28N 29°41' W 094°59'0 0.0
2017-Oct-02 01:58N 29°41' W 094°59'0 0.0
2017-Oct-02 01:28N 29°41' W 094°59'0 0.0
2017-Oct-02 00:58N 29°41' W 094°59'0 0.0
2017-Oct-02 00:28N 29°41' W 094°59'0 0.0
2017-Oct-01 23:58N 29°41' W 094°59'0 0.0
2017-Oct-01 23:28N 29°41' W 094°59'0 0.0
2017-Oct-01 22:58N 29°41' W 094°59'0 0.0
2017-Oct-01 22:28N 29°41' W 094°59'0 0.0
2017-Oct-01 21:58N 29°41' W 094°59'0 0.0
2017-Oct-01 21:28N 29°41' W 094°59'0 0.0
2017-Oct-01 20:55N 29°41' W 094°59'0 0.0
2017-Oct-01 20:28N 29°41' W 094°59'0 0.0
2017-Oct-01 19:58N 29°41' W 094°59'0 0.0
2017-Oct-01 19:28N 29°41' W 094°59'0 0.0
2017-Oct-01 18:58N 29°41' W 094°59'0 0.0
2017-Oct-01 18:28N 29°41' W 094°59'0 0.0
2017-Oct-01 17:58N 29°41' W 094°59'0 0.0
2017-Oct-01 17:28N 29°41' W 094°59'0 0.0
2017-Oct-01 16:58N 29°41' W 094°59'0 0.0
2017-Oct-01 16:28N 29°41' W 094°59'0 0.0
2017-Oct-01 15:58N 29°41' W 094°59'0 0.0
2017-Oct-01 15:28N 29°41' W 094°59'0 0.0
2017-Oct-01 14:58N 29°41' W 094°59'0 0.0
2017-Oct-01 14:28N 29°41' W 094°59'0 0.0
2017-Oct-01 13:58N 29°41' W 094°59'0 0.0
2017-Oct-01 13:28N 29°41' W 094°59'0 0.0
2017-Oct-01 12:58N 29°41' W 094°59'0 0.0
2017-Oct-01 12:28N 29°41' W 094°59'0 0.0
2017-Oct-01 11:58N 29°41' W 094°59'0 0.0
2017-Oct-01 11:25N 29°41' W 094°59'0 0.0
2017-Oct-01 10:58N 29°41' W 094°59'0 0.0
2017-Oct-01 10:28N 29°41' W 094°59'0 0.0
2017-Oct-01 09:58N 29°41' W 094°59'0 0.0
2017-Oct-01 09:28N 29°41' W 094°59'0 0.0
2017-Oct-01 08:58N 29°41' W 094°59'0 0.0
2017-Oct-01 08:28N 29°41' W 094°59'0 0.0
2017-Oct-01 07:58N 29°41' W 094°59'0 0.0
2017-Oct-01 07:28N 29°41' W 094°59'0 0.0
2017-Oct-01 06:58N 29°41' W 094°59'0 0.0
2017-Oct-01 06:25N 29°41' W 094°59'0 0.0
2017-Oct-01 05:55N 29°41' W 094°59'0 0.0
2017-Oct-01 05:28N 29°41' W 094°59'0 0.0
2017-Oct-01 04:58N 29°41' W 094°59'0 0.0
2017-Oct-01 04:25N 29°41' W 094°59'0 0.0
2017-Oct-01 03:58N 29°41' W 094°59'0 0.0
2017-Oct-01 03:28N 29°41' W 094°59'0 0.0
2017-Oct-01 02:58N 29°41' W 094°59'  

Dump ship's entire track history